Copake, New York
Current Conditions -  °F | °C
As of 11:54 AM on Thursday 30 Oct 2014 (Local Time) from KPSF Reporting Station
Scattered Clouds Scattered Clouds  
Wind Chill: 42°   Ceiling: Unl
Heat Index: 48°   Visibility: 10mi
Dew Point: 36°   Wind: 15mph
Humidity: 63%   Direction: 280°W
Pressure: 29.95"   Gusts: 24mph
Location:  42.1°N, 73.55°W
Report Text: KPSF 301554Z AUTO 28013G21KT 10SM SCT028 09/02 A2995 RMK AO2 SLP139 T00890022
Loading
Personal Weather Stations






























Interactive Weather Map
Tropical Storm Tracking
New forecast layout! Learn more

10-Day Weather Forecast

Advertisements
Track Severe Weather on mobile